Time;durP1;ratioP1;P1;durP2;ratioP2;P2;SDS_P1;SDS_P2;PMS_P1;PMS_P2;Temp;Humidity;BMP_temperature;BMP_pressure;BME280_temperature;BME280_humidity;BME280_pressure;Samples;Min_cycle;Max_cycle;Signal;HPM_P1;HPM_P2
2024/04/14 00:01:29;;;;;;;19.23;3.65;;;;;;;-146.27;70.75;45315.59;5466707;26;20403;-70
2024/04/14 00:03:57;;;;;;;17.90;3.25;;;;;;;-146.27;70.73;45253.91;5475339;26;20007;-69
2024/04/14 00:06:23;;;;;;;14.77;3.22;;;;;;;-146.27;71.58;45194.19;5476739;26;19990;-69
2024/04/14 00:08:51;;;;;;;17.95;3.42;;;;;;;-146.27;71.82;45166.31;5456751;26;20018;-68
2024/04/14 00:11:16;;;;;;;13.48;2.72;;;;;;;-146.27;72.01;45098.66;5467927;26;20349;-69
2024/04/14 00:13:41;;;;;;;13.68;2.90;;;;;;;-146.27;72.09;45009.13;5454395;26;19991;-70
2024/04/14 00:16:07;;;;;;;22.85;3.22;;;;;;;-146.27;72.17;44955.38;5496817;25;20006;-70
2024/04/14 00:18:32;;;;;;;15.48;3.78;;;;;;;-146.27;72.88;44935.47;5474400;26;20454;-69
2024/04/14 00:20:57;;;;;;;16.48;3.70;;;;;;;-146.27;72.61;44871.81;5471096;26;20329;-69
2024/04/14 00:23:23;;;;;;;12.80;2.63;;;;;;;-146.27;73.04;44820.06;5460607;26;20006;-69
2024/04/14 00:25:48;;;;;;;16.35;3.17;;;;;;;-146.27;72.76;44772.31;5484639;26;19998;-70
2024/04/14 00:28:14;;;;;;;17.88;3.00;;;;;;;-146.27;72.47;44776.28;5485936;26;20001;-71
2024/04/14 00:30:41;;;;;;;14.48;2.72;;;;;;;-146.27;72.75;44812.09;5468597;26;19999;-70
2024/04/14 00:33:07;;;;;;;12.82;2.95;;;;;;;-146.27;71.94;44808.13;5454407;26;20435;-70
2024/04/14 00:35:32;;;;;;;11.30;2.42;;;;;;;-146.27;70.84;44873.78;5457949;26;19998;-70
2024/04/14 00:37:58;;;;;;;13.85;2.30;;;;;;;-146.27;70.64;44939.47;5453720;26;20005;-70
2024/04/14 00:40:23;;;;;;;12.90;1.70;;;;;;;-146.27;68.89;45007.13;5450816;26;20300;-69
2024/04/14 00:42:55;;;;;;;8.23;2.15;;;;;;;-146.27;67.73;45108.63;5485911;26;19999;-70
2024/04/14 00:45:21;;;;;;;11.30;1.88;;;;;;;-146.27;67.51;45160.34;5469112;26;20752;-70
2024/04/14 00:47:46;;;;;;;11.20;1.42;;;;;;;-146.27;66.27;45214.09;5470253;26;20056;-69
2024/04/14 00:50:13;;;;;;;8.50;1.75;;;;;;;-146.27;65.87;45235.97;5452836;26;19998;-69
2024/04/14 00:52:38;;;;;;;10.90;2.92;;;;;;;-146.27;65.67;45267.81;5451105;26;19999;-71
2024/04/14 00:55:05;;;;;;;13.43;1.50;;;;;;;-146.27;65.98;45315.59;5470882;26;20443;-72
2024/04/14 00:57:32;;;;;;;9.57;1.40;;;;;;;-146.27;65.10;45341.47;5451939;26;19998;-70
2024/04/14 00:59:59;;;;;;;12.00;1.33;;;;;;;-146.27;65.25;45349.41;5464513;26;19998;-70
2024/04/14 01:02:24;;;;;;;9.73;1.20;;;;;;;-146.27;65.58;45389.22;5475528;26;19995;-70
2024/04/14 01:04:50;;;;;;;7.72;1.42;;;;;;;-146.27;65.18;45429.03;5456872;26;20006;-69
2024/04/14 01:07:16;;;;;;;6.68;1.80;;;;;;;-146.27;65.15;45456.91;5473956;26;19994;-69
2024/04/14 01:09:41;;;;;;;10.90;1.60;;;;;;;-146.27;65.29;45482.78;5469081;26;20079;-69
2024/04/14 01:12:08;;;;;;;8.65;1.95;;;;;;;-146.27;64.34;45522.56;5450248;26;19998;-68
2024/04/14 01:14:33;;;;;;;7.53;1.92;;;;;;;-146.27;64.28;45534.50;5458998;26;20006;-69
2024/04/14 01:16:58;;;;;;;10.25;1.73;;;;;;;-146.27;63.87;45508.63;5464854;26;20019;-73
2024/04/14 01:19:24;;;;;;;8.95;1.58;;;;;;;-146.27;64.40;45540.50;5462074;26;19995;-70
2024/04/14 01:21:49;;;;;;;12.77;1.55;;;;;;;-146.27;64.51;45556.41;5475747;26;20009;-69
2024/04/14 01:24:14;;;;;;;8.77;1.85;;;;;;;-146.27;64.53;45548.44;5483695;26;20003;-70
2024/04/14 01:26:40;;;;;;;6.15;1.02;;;;;;;-146.27;64.84;45544.47;5482817;26;20018;-69
2024/04/14 01:29:06;;;;;;;13.05;1.60;;;;;;;-146.27;64.97;45558.41;5470878;26;20076;-70
2024/04/14 01:31:31;;;;;;;14.18;1.45;;;;;;;-146.27;65.19;45572.34;5462730;26;20006;-72
2024/04/14 01:33:57;;;;;;;7.53;1.80;;;;;;;-146.27;64.82;45580.28;5472387;26;20069;-70
2024/04/14 01:36:22;;;;;;;4.65;1.35;;;;;;;-146.27;64.59;45598.19;5458330;26;20046;-70
2024/04/14 01:38:47;;;;;;;11.45;1.42;;;;;;;-146.27;65.37;45628.06;5449587;26;20347;-72
2024/04/14 01:41:13;;;;;;;9.07;1.50;;;;;;;-146.27;64.54;45634.03;5457116;26;20009;-68
2024/04/14 01:43:38;;;;;;;10.77;1.45;;;;;;;-146.27;65.03;45632.03;5481865;26;20458;-68
2024/04/14 01:46:04;;;;;;;8.73;1.60;;;;;;;-146.27;65.01;45626.06;5457052;26;20002;-69
2024/04/14 01:48:29;;;;;;;12.43;1.83;;;;;;;-146.27;63.97;45667.88;5455708;26;20006;-69
2024/04/14 01:50:54;;;;;;;11.13;2.00;;;;;;;-146.27;64.73;45663.88;5455662;26;20497;-70
2024/04/14 01:53:20;;;;;;;7.57;1.30;;;;;;;-146.27;64.29;45661.91;5450378;26;20041;-70
2024/04/14 01:55:46;;;;;;;8.95;1.45;;;;;;;-146.27;64.66;45661.91;5478535;26;20458;-69
2024/04/14 01:58:11;;;;;;;6.28;1.10;;;;;;;-146.27;65.14;45681.81;5456960;26;20000;-69
2024/04/14 02:00:37;;;;;;;12.18;1.30;;;;;;;-146.27;64.12;45675.81;5456559;26;19994;-71
2024/04/14 02:03:02;;;;;;;8.77;1.75;;;;;;;-146.27;64.17;45683.78;5460573;26;20033;-71
2024/04/14 02:05:28;;;;;;;3.78;0.98;;;;;;;-146.27;64.20;45697.72;5469566;26;20027;-71
2024/04/14 02:07:53;;;;;;;11.43;1.45;;;;;;;-146.27;64.64;45699.72;5476656;26;20105;-71
2024/04/14 02:10:18;;;;;;;6.18;1.42;;;;;;;-146.27;64.64;45697.72;5464229;26;19994;-71
2024/04/14 02:12:44;;;;;;;14.20;1.58;;;;;;;-146.27;64.71;45651.94;5468655;26;20009;-71
2024/04/14 02:15:09;;;;;;;9.80;1.30;;;;;;;-146.27;65.32;45651.94;5459651;26;20006;-69
2024/04/14 02:17:35;;;;;;;8.85;1.50;;;;;;;-146.27;65.67;45659.91;5448222;26;20003;-70
2024/04/14 02:20:00;;;;;;;5.38;1.02;;;;;;;-146.27;65.34;45679.81;5469606;26;20000;-72
2024/04/14 02:22:26;;;;;;;11.10;1.48;;;;;;;-146.27;64.54;45689.75;5472086;26;20104;-71
2024/04/14 02:24:51;;;;;;;9.43;2.03;;;;;;;-146.27;65.17;45675.81;5483434;26;20323;-71
2024/04/14 02:27:16;;;;;;;9.77;1.98;;;;;;;-146.27;64.71;45687.78;5472161;26;20587;-71
2024/04/14 02:29:42;;;;;;;11.25;1.40;;;;;;;-146.27;65.77;45687.78;5462209;26;20013;-72
2024/04/14 02:32:07;;;;;;;9.75;1.58;;;;;;;-146.27;65.53;45675.81;5475817;26;20010;-71
2024/04/14 02:34:33;;;;;;;6.97;1.48;;;;;;;-146.27;65.09;45689.75;5453584;26;20011;-70
2024/04/14 02:36:58;;;;;;;10.77;1.35;;;;;;;-146.27;65.17;45689.75;5460141;26;19999;-71
2024/04/14 02:39:24;;;;;;;10.25;1.75;;;;;;;-146.27;65.09;45713.66;5461105;26;19994;-71
2024/04/14 02:41:49;;;;;;;14.25;2.00;;;;;;;-146.27;65.23;45703.69;5453393;26;20061;-71
2024/04/14 02:44:16;;;;;;;7.40;1.52;;;;;;;-146.27;64.90;45695.72;5479647;26;19994;-69
2024/04/14 02:46:42;;;;;;;13.23;1.70;;;;;;;-146.27;64.54;45699.72;5448184;26;20051;-70
2024/04/14 02:49:07;;;;;;;9.93;1.75;;;;;;;-146.27;64.05;45701.69;5455996;26;19995;-70
2024/04/14 02:51:33;;;;;;;9.25;1.65;;;;;;;-146.27;64.15;45747.47;5451864;26;20331;-69
2024/04/14 02:53:58;;;;;;;11.40;1.45;;;;;;;-146.27;64.13;45725.59;5467044;26;19998;-71
2024/04/14 02:56:23;;;;;;;8.73;1.85;;;;;;;-146.27;63.41;45763.41;5467576;26;20062;-70
2024/04/14 02:58:49;;;;;;;9.18;1.35;;;;;;;-146.27;63.59;45763.41;5449667;26;20010;-71
2024/04/14 03:01:16;;;;;;;13.85;1.67;;;;;;;-146.27;62.87;45775.34;5454828;26;19991;-70
2024/04/14 03:03:44;;;;;;;5.65;1.60;;;;;;;-146.27;61.61;45803.22;5478651;26;20074;-69
2024/04/14 03:06:09;;;;;;;6.95;1.20;;;;;;;-146.27;62.02;45775.34;5460526;26;20003;-70
2024/04/14 03:08:35;;;;;;;13.10;1.48;;;;;;;-146.27;61.49;45845.00;5476956;26;20022;-70
2024/04/14 03:11:00;;;;;;;5.30;0.90;;;;;;;-146.27;61.14;45835.06;5458634;26;20010;-71
2024/04/14 03:13:26;;;;;;;10.27;1.67;;;;;;;-146.27;59.90;45811.19;5449700;26;20007;-70
2024/04/14 03:15:52;;;;;;;5.80;1.00;;;;;;;-146.27;59.91;45860.94;5463891;26;20025;-70
2024/04/14 03:18:18;;;;;;;7.57;1.27;;;;;;;-146.27;61.21;45831.09;5476222;26;20099;-73
2024/04/14 03:20:54;;;;;;;8.45;1.20;;;;;;;-146.27;60.60;45827.09;5450597;26;20027;-70
2024/04/14 03:23:20;;;;;;;8.18;1.15;;;;;;;-146.27;59.96;45866.91;5465196;26;20005;-72
2024/04/14 03:25:46;;;;;;;9.07;1.38;;;;;;;-146.27;59.79;45892.78;5473072;26;19999;-70
2024/04/14 03:28:11;;;;;;;10.13;1.40;;;;;;;-146.27;59.65;45874.88;5466989;26;20041;-70
2024/04/14 03:30:36;;;;;;;9.40;1.90;;;;;;;-146.27;59.89;45862.94;5451176;26;20010;-70
2024/04/14 03:33:02;;;;;;;8.30;1.45;;;;;;;-146.27;59.95;45916.66;5464591;26;20006;-69
2024/04/14 03:35:27;;;;;;;8.63;1.95;;;;;;;-146.27;60.38;45862.94;5475201;26;19999;-70
2024/04/14 03:37:52;;;;;;;9.65;1.35;;;;;;;-146.27;59.50;45835.06;5482209;26;20012;-69
2024/04/14 03:40:18;;;;;;;9.32;2.28;;;;;;;-146.27;59.15;45866.91;5467343;26;20074;-69
2024/04/14 03:42:43;;;;;;;9.30;1.42;;;;;;;-146.27;58.64;45942.53;5473318;26;20050;-73
2024/04/14 03:45:08;;;;;;;16.98;2.42;;;;;;;-146.27;58.58;45912.69;5462965;26;20461;-69
2024/04/14 03:47:35;;;;;;;9.50;1.60;;;;;;;-146.27;58.24;45894.78;5452923;26;20627;-69
2024/04/14 03:50:04;;;;;;;5.68;1.02;;;;;;;-146.27;58.25;45906.72;5467073;26;20087;-70
2024/04/14 03:52:30;;;;;;;8.25;1.13;;;;;;;-146.27;57.62;45930.59;5468644;26;20005;-71
2024/04/14 03:54:55;;;;;;;8.68;1.90;;;;;;;-146.27;57.35;45968.41;5469331;26;19999;-71
2024/04/14 03:57:21;;;;;;;8.77;1.20;;;;;;;-146.27;57.94;45962.44;5479213;26;20005;-71
2024/04/14 03:59:48;;;;;;;13.38;1.27;;;;;;;-146.27;57.88;45964.44;5485797;26;20022;-70
2024/04/14 04:02:14;;;;;;;8.63;1.20;;;;;;;-146.27;57.85;45950.50;5469047;26;20041;-69
2024/04/14 04:04:40;;;;;;;11.75;2.10;;;;;;;-146.27;57.81;45926.63;5480936;26;20002;-71
2024/04/14 04:07:05;;;;;;;9.60;1.88;;;;;;;-146.27;57.66;45962.44;5470020;26;20009;-69
2024/04/14 04:09:30;;;;;;;8.75;1.80;;;;;;;-146.27;57.99;45946.53;5452277;26;20029;-71
2024/04/14 04:11:56;;;;;;;10.63;1.38;;;;;;;-146.27;59.01;45962.44;5460376;26;20043;-70
2024/04/14 04:14:21;;;;;;;9.77;1.80;;;;;;;-146.27;58.47;45954.50;5486056;26;20315;-69
2024/04/14 04:16:49;;;;;;;8.45;1.50;;;;;;;-146.27;58.83;45958.47;5488139;26;20417;-70
2024/04/14 04:19:15;;;;;;;6.22;1.15;;;;;;;-146.27;58.36;45934.59;5484233;26;19994;-70
2024/04/14 04:21:40;;;;;;;7.03;1.08;;;;;;;-146.27;58.65;45954.50;5480955;26;20439;-69
2024/04/14 04:24:06;;;;;;;8.27;1.30;;;;;;;-146.27;58.59;45978.38;5452315;26;20068;-70
2024/04/14 04:26:31;;;;;;;12.60;1.90;;;;;;;-146.27;58.69;45962.44;5450826;26;20603;-70
2024/04/14 04:28:56;;;;;;;13.85;1.67;;;;;;;-146.27;58.84;45980.38;5468216;26;20014;-70
2024/04/14 04:31:22;;;;;;;12.98;1.48;;;;;;;-146.27;58.87;45982.34;5476784;26;20010;-70
2024/04/14 04:33:47;;;;;;;10.93;1.17;;;;;;;-146.27;59.08;45976.38;5456344;26;20014;-71
2024/04/14 04:36:13;;;;;;;4.82;0.95;;;;;;;-146.27;59.06;46018.19;5453991;26;20067;-69
2024/04/14 04:38:42;;;;;;;7.18;1.40;;;;;;;-146.27;58.61;46018.19;5471581;26;20013;-71
2024/04/14 04:41:08;;;;;;;13.43;1.63;;;;;;;-146.27;58.73;46034.09;5452861;26;20828;-68
2024/04/14 04:43:37;;;;;;;9.25;1.30;;;;;;;-146.27;58.89;45990.31;5481331;26;20002;-69
2024/04/14 04:46:02;;;;;;;5.97;1.48;;;;;;;-146.27;58.72;45976.38;5465609;26;20006;-68
2024/04/14 04:48:27;;;;;;;7.63;1.52;;;;;;;-146.27;59.10;46004.25;5457613;26;20018;-68
2024/04/14 04:50:53;;;;;;;6.57;1.50;;;;;;;-146.27;59.57;46002.25;5479902;26;19998;-69
2024/04/14 04:53:19;;;;;;;8.18;1.23;;;;;;;-146.27;59.17;46010.22;5467135;26;19999;-70
2024/04/14 04:55:44;;;;;;;8.90;1.48;;;;;;;-146.27;59.39;46028.13;5464618;26;19994;-70
2024/04/14 04:58:11;;;;;;;6.20;1.20;;;;;;;-146.27;59.84;46060.00;5451148;26;20447;-70
2024/04/14 05:00:36;;;;;;;12.73;1.48;;;;;;;-146.27;59.08;46065.97;5450590;26;20006;-68
2024/04/14 05:03:02;;;;;;;13.07;1.63;;;;;;;-146.27;58.78;46065.97;5450570;26;20023;-69
2024/04/14 05:05:27;;;;;;;8.13;1.92;;;;;;;-146.27;58.78;46058.00;5469791;26;20006;-68
2024/04/14 05:07:52;;;;;;;10.38;1.65;;;;;;;-146.27;58.55;46089.84;5469230;26;20010;-69
2024/04/14 05:10:18;;;;;;;8.88;1.42;;;;;;;-146.27;58.88;46107.75;5464041;26;20074;-70
2024/04/14 05:12:43;;;;;;;13.52;1.88;;;;;;;-146.27;59.07;46147.56;5453198;26;20002;-70
2024/04/14 05:15:10;;;;;;;9.75;2.13;;;;;;;-146.27;58.83;46173.44;5476845;26;20004;-70
2024/04/14 05:17:36;;;;;;;9.80;1.23;;;;;;;-146.27;59.25;46201.31;5476042;26;20335;-68
2024/04/14 05:20:01;;;;;;;10.57;1.35;;;;;;;-146.27;59.50;46237.16;5477143;26;20071;-68
2024/04/14 05:22:26;;;;;;;3.67;1.30;;;;;;;-146.27;59.22;46288.91;5472471;26;20002;-69
2024/04/14 05:24:52;;;;;;;10.00;1.77;;;;;;;-146.27;59.78;46372.53;5464651;26;20795;-69
2024/04/14 05:27:19;;;;;;;12.02;1.40;;;;;;;-146.27;59.78;46408.34;5456177;26;19999;-71
2024/04/14 05:29:45;;;;;;;6.65;1.45;;;;;;;-146.27;59.57;46412.34;5475480;26;20013;-72
2024/04/14 05:32:12;;;;;;;7.72;1.50;;;;;;;-146.27;59.20;46444.19;5462214;26;19999;-70
2024/04/14 05:34:37;;;;;;;8.40;1.60;;;;;;;-146.27;59.50;46448.16;5451093;26;19991;-73
2024/04/14 05:37:03;;;;;;;9.52;1.30;;;;;;;-146.27;59.58;46436.22;5463849;26;20489;-71
2024/04/14 05:39:28;;;;;;;8.32;1.38;;;;;;;-146.27;59.31;46416.31;5483529;26;20498;-71
2024/04/14 05:41:53;;;;;;;7.47;1.15;;;;;;;-146.27;59.43;46430.25;5456855;26;20012;-71
2024/04/14 05:44:19;;;;;;;6.05;1.15;;;;;;;-146.27;59.80;46444.19;5454939;26;20006;-70
2024/04/14 05:46:44;;;;;;;6.88;1.33;;;;;;;-146.27;59.95;46450.16;5448824;26;20009;-71
2024/04/14 05:49:09;;;;;;;16.75;1.90;;;;;;;-146.27;60.15;46420.28;5465605;26;20817;-71
2024/04/14 05:51:35;;;;;;;8.80;1.77;;;;;;;-146.27;60.54;46420.28;5452161;26;19999;-72
2024/04/14 05:54:00;;;;;;;7.72;1.40;;;;;;;-146.27;60.79;46438.22;5458811;26;20074;-71
2024/04/14 05:56:26;;;;;;;5.18;1.45;;;;;;;-146.27;61.29;46446.19;5457960;26;20010;-71
2024/04/14 05:58:51;;;;;;;5.22;1.30;;;;;;;-146.27;62.14;46414.31;5450926;26;20002;-71
2024/04/14 06:01:16;;;;;;;7.43;1.95;;;;;;;-146.27;62.01;46424.28;5485283;26;20470;-71
2024/04/14 06:03:42;;;;;;;10.10;1.42;;;;;;;-146.27;62.26;46426.28;5483287;26;20442;-72
2024/04/14 06:06:08;;;;;;;12.93;2.35;;;;;;;-146.27;62.33;46400.38;5465704;26;19999;-69
2024/04/14 06:08:33;;;;;;;7.00;1.10;;;;;;;-146.27;62.63;46426.28;5452483;26;20002;-71
2024/04/14 06:10:59;;;;;;;10.27;1.77;;;;;;;-146.27;61.94;46390.44;5449214;26;20070;-70
2024/04/14 06:13:24;;;;;;;10.48;1.58;;;;;;;-146.27;61.42;46438.22;5456702;26;19991;-72
2024/04/14 06:15:50;;;;;;;12.57;1.83;;;;;;;-146.27;61.76;46424.28;5467920;26;20051;-71
2024/04/14 06:18:16;;;;;;;6.25;1.38;;;;;;;-146.27;61.13;46436.22;5469186;26;20063;-72
2024/04/14 06:20:41;;;;;;;12.48;2.42;;;;;;;-146.27;60.00;46464.09;5454413;26;20366;-71
2024/04/14 06:23:06;;;;;;;9.23;1.58;;;;;;;-146.27;60.23;46460.09;5450362;26;20005;-71
2024/04/14 06:25:32;;;;;;;10.05;1.48;;;;;;;-146.27;59.33;46474.03;5483714;26;20002;-71
2024/04/14 06:27:58;;;;;;;8.98;1.33;;;;;;;-146.27;58.76;46482.00;5466971;26;19995;-71
2024/04/14 06:30:23;;;;;;;7.82;1.77;;;;;;;-146.27;57.97;46487.97;5461832;26;20030;-70
2024/04/14 06:32:52;;;;;;;7.13;1.70;;;;;;;-146.27;57.77;46486.00;5470529;26;20002;-69
2024/04/14 06:35:18;;;;;;;15.07;1.50;;;;;;;-146.27;56.66;46531.78;5467744;26;19994;-70
2024/04/14 06:37:43;;;;;;;6.22;1.45;;;;;;;-146.27;56.40;46563.63;5477867;26;20366;-69
2024/04/14 06:40:09;;;;;;;5.93;1.67;;;;;;;-146.27;55.78;46583.53;5461815;26;20069;-71
2024/04/14 06:42:35;;;;;;;9.50;1.75;;;;;;;-146.27;55.84;46557.66;5463479;26;20006;-71
2024/04/14 06:45:01;;;;;;;7.63;1.50;;;;;;;-146.27;55.44;46527.78;5455703;26;20006;-70
2024/04/14 06:47:26;;;;;;;12.27;1.60;;;;;;;-146.27;55.87;46559.66;5458429;26;20075;-70
2024/04/14 06:49:52;;;;;;;4.10;1.08;;;;;;;-146.27;55.45;46563.63;5449420;26;19991;-70
2024/04/14 06:52:17;;;;;;;6.10;1.08;;;;;;;-146.27;55.97;46555.66;5476710;26;20005;-70
2024/04/14 06:54:43;;;;;;;12.18;2.22;;;;;;;-146.27;54.46;46593.50;5456572;26;20507;-71
2024/04/14 06:57:08;;;;;;;7.35;1.35;;;;;;;-146.27;54.60;46597.47;5453121;26;20013;-71
2024/04/14 06:59:34;;;;;;;4.95;1.10;;;;;;;-146.27;53.52;46655.22;5472664;26;20087;-70
2024/04/14 07:01:59;;;;;;;6.72;1.67;;;;;;;-146.27;53.59;46577.56;5471945;26;20046;-70
2024/04/14 07:04:25;;;;;;;8.02;1.73;;;;;;;-146.27;53.31;46611.41;5463950;26;19998;-70
2024/04/14 07:06:50;;;;;;;7.68;1.23;;;;;;;-146.27;53.39;46599.47;5474326;26;19994;-69
2024/04/14 07:09:16;;;;;;;12.32;1.83;;;;;;;-146.27;51.84;46631.31;5479597;25;19994;-70
2024/04/14 07:11:41;;;;;;;7.00;1.00;;;;;;;-146.27;51.41;46653.22;5458264;26;20006;-69
2024/04/14 07:14:07;;;;;;;8.88;1.38;;;;;;;-146.27;49.31;46718.91;5460276;26;20009;-71
2024/04/14 07:16:32;;;;;;;8.70;1.35;;;;;;;-146.27;48.69;46699.00;5457250;26;19999;-71
2024/04/14 07:18:57;;;;;;;6.95;1.75;;;;;;;-146.27;46.91;46746.78;5471119;26;20346;-70
2024/04/14 07:21:23;;;;;;;4.25;0.95;;;;;;;-146.27;46.19;46762.72;5449233;26;20374;-70
2024/04/14 07:23:48;;;;;;;9.25;1.70;;;;;;;-146.27;45.33;46806.53;5480401;26;20501;-70
2024/04/14 07:26:14;;;;;;;5.60;1.33;;;;;;;-146.27;44.03;46876.19;5467909;26;20105;-70
2024/04/14 07:28:39;;;;;;;6.40;1.30;;;;;;;-146.27;43.38;46884.16;5463670;26;20475;-70
2024/04/14 07:31:05;;;;;;;7.07;1.52;;;;;;;-146.27;42.70;46947.88;5462006;26;20332;-70
2024/04/14 07:33:30;;;;;;;5.10;1.13;;;;;;;-146.27;42.11;46949.88;5450767;26;20351;-69
2024/04/14 07:35:55;;;;;;;6.38;1.58;;;;;;;-146.27;41.79;47013.59;5470672;26;20443;-71
2024/04/14 07:38:21;;;;;;;7.22;1.48;;;;;;;-146.27;42.23;46961.81;5483142;26;20001;-70
2024/04/14 07:40:46;;;;;;;7.65;0.90;;;;;;;-146.27;41.81;47015.56;5457242;26;20005;-73
2024/04/14 07:43:11;;;;;;;4.45;0.90;;;;;;;-146.27;41.85;47025.53;5474892;26;20355;-69
2024/04/14 07:45:37;;;;;;;3.42;0.65;;;;;;;-146.27;41.14;47021.53;5469415;26;20035;-69
2024/04/14 07:48:02;;;;;;;5.03;0.88;;;;;;;-146.27;39.93;47075.31;5463755;26;19995;-70
2024/04/14 07:50:28;;;;;;;4.97;1.48;;;;;;;-146.27;39.88;47117.13;5469719;26;20078;-72
2024/04/14 07:52:53;;;;;;;6.88;1.02;;;;;;;-146.27;39.85;47089.25;5469166;26;19995;-71
2024/04/14 07:55:19;;;;;;;1.88;0.52;;;;;;;-146.27;39.38;47135.03;5460491;26;20006;-71
2024/04/14 07:57:44;;;;;;;6.45;1.10;;;;;;;-146.27;39.57;47152.97;5483607;26;20002;-69
2024/04/14 08:00:10;;;;;;;3.72;0.93;;;;;;;-146.27;39.68;47139.03;5481342;26;19998;-69
2024/04/14 08:02:35;;;;;;;8.07;1.10;;;;;;;-146.27;39.82;47152.97;5482126;26;20070;-70
2024/04/14 08:05:00;;;;;;;6.20;1.20;;;;;;;-146.27;40.45;47145.00;5464287;26;20018;-69
2024/04/14 08:07:26;;;;;;;8.98;1.67;;;;;;;-146.27;40.47;47152.97;5460873;26;20268;-70
2024/04/14 08:09:51;;;;;;;4.82;0.77;;;;;;;-146.27;40.96;47125.09;5469104;26;20010;-70
2024/04/14 08:12:17;;;;;;;8.13;1.38;;;;;;;-146.27;40.88;47125.09;5470197;26;20030;-71
2024/04/14 08:14:42;;;;;;;9.38;1.25;;;;;;;-146.27;41.36;47099.19;5469330;26;19994;-70
2024/04/14 08:17:07;;;;;;;9.43;1.50;;;;;;;-146.27;41.53;47162.91;5481918;26;19994;-70
2024/04/14 08:19:33;;;;;;;9.90;1.30;;;;;;;-146.27;41.70;47148.97;5467295;26;20002;-70
2024/04/14 08:21:58;;;;;;;8.98;1.00;;;;;;;-146.27;42.07;47160.91;5467097;26;20011;-71
2024/04/14 08:24:24;;;;;;;10.45;1.10;;;;;;;-146.27;41.55;47133.03;5476644;26;20078;-70
2024/04/14 08:26:49;;;;;;;5.18;1.10;;;;;;;-146.27;41.32;47168.88;5475144;26;20002;-70
2024/04/14 08:29:15;;;;;;;6.07;0.98;;;;;;;-146.27;41.90;47105.16;5472940;26;20008;-70
2024/04/14 08:31:40;;;;;;;6.30;0.90;;;;;;;-146.27;41.89;47129.06;5474477;26;20331;-70
2024/04/14 08:34:06;;;;;;;6.05;1.00;;;;;;;-146.27;41.86;47131.06;5475134;26;20319;-70
2024/04/14 08:36:32;;;;;;;4.53;0.85;;;;;;;-146.27;41.75;47141.00;5468502;26;20458;-72
2024/04/14 08:38:57;;;;;;;4.78;1.23;;;;;;;-146.27;42.75;47089.25;5469687;26;20467;-70
2024/04/14 08:41:24;;;;;;;5.53;0.88;;;;;;;-146.27;42.86;47099.19;5472958;26;20455;-70
2024/04/14 08:43:51;;;;;;;13.10;1.10;;;;;;;-146.27;42.45;47125.09;5471277;26;20370;-71
2024/04/14 08:46:19;;;;;;;7.10;0.93;;;;;;;-146.27;41.58;47129.06;5470592;26;20037;-70
2024/04/14 08:48:46;;;;;;;8.80;0.80;;;;;;;-146.27;41.47;47160.91;5464414;26;19999;-70
2024/04/14 08:51:15;;;;;;;9.55;1.02;;;;;;;-146.27;41.29;47143.00;5478343;26;20044;-71
2024/04/14 08:53:42;;;;;;;6.75;1.13;;;;;;;-146.27;40.19;47170.88;5476096;26;20013;-70
2024/04/14 08:56:08;;;;;;;5.85;1.02;;;;;;;-146.27;39.02;47172.88;5474792;26;20053;-71
2024/04/14 08:58:34;;;;;;;7.53;1.00;;;;;;;-146.27;38.71;47139.03;5452176;26;20320;-69
2024/04/14 09:01:04;;;;;;;4.82;1.08;;;;;;;-146.27;38.83;47186.81;5475372;26;19994;-70
2024/04/14 09:03:32;;;;;;;4.10;1.02;;;;;;;-146.27;38.65;47196.75;5478541;26;19999;-71
2024/04/14 09:06:05;;;;;;;3.42;1.10;;;;;;;-146.27;38.19;47258.50;5475463;26;20005;-70
2024/04/14 09:08:31;;;;;;;8.07;1.23;;;;;;;-146.27;38.51;47234.59;5484521;26;20020;-71
2024/04/14 09:10:56;;;;;;;4.07;0.55;;;;;;;-146.27;39.38;47196.75;5484830;26;20002;-72
2024/04/14 09:13:24;;;;;;;4.85;0.82;;;;;;;-146.27;37.78;47250.53;5451300;26;19999;-69
2024/04/14 09:15:54;;;;;;;4.25;0.73;;;;;;;-146.27;37.06;47280.38;5463177;26;19999;-69
2024/04/14 09:18:20;;;;;;;4.50;1.88;;;;;;;-146.27;37.44;47252.50;5477657;26;19998;-71
2024/04/14 09:20:45;;;;;;;3.83;1.05;;;;;;;-146.27;37.66;47224.63;5469291;26;20007;-68
2024/04/14 09:23:10;;;;;;;5.13;1.10;;;;;;;-146.27;37.85;47248.53;5462389;26;20013;-70
2024/04/14 09:25:36;;;;;;;5.38;1.02;;;;;;;-146.27;38.44;47226.63;5465818;26;19999;-70
2024/04/14 09:28:03;;;;;;;6.97;1.20;;;;;;;-146.27;38.50;47224.63;5467824;26;20002;-70
2024/04/14 09:30:28;;;;;;;5.78;1.08;;;;;;;-146.27;38.39;47240.56;5467857;26;20006;-71
2024/04/14 09:32:54;;;;;;;3.35;1.02;;;;;;;-146.27;38.01;47266.44;5469684;26;20066;-69
2024/04/14 09:35:20;;;;;;;4.35;1.23;;;;;;;-146.27;37.84;47248.53;5450976;26;20070;-71
2024/04/14 09:37:48;;;;;;;9.23;1.02;;;;;;;-146.27;36.59;47270.44;5460031;26;19995;-71
2024/04/14 09:40:17;;;;;;;9.23;1.85;;;;;;;-146.27;36.96;47286.38;5454965;26;20004;-69
2024/04/14 09:42:44;;;;;;;7.10;1.13;;;;;;;-146.27;37.17;47280.38;5451115;26;20328;-69
2024/04/14 09:45:09;;;;;;;3.38;0.88;;;;;;;-146.27;36.94;47274.41;5454179;26;19995;-69
2024/04/14 09:47:37;;;;;;;5.32;1.00;;;;;;;-146.27;36.97;47322.19;5482101;26;20001;-70
2024/04/14 09:50:07;;;;;;;8.18;1.67;;;;;;;-146.27;37.42;47304.28;5460573;26;19999;-70
2024/04/14 09:52:33;;;;;;;4.00;0.90;;;;;;;-146.27;37.74;47272.44;5452832;26;20483;-70
2024/04/14 09:54:59;;;;;;;3.78;0.90;;;;;;;-146.27;37.32;47300.31;5466966;26;20008;-71
2024/04/14 09:57:25;;;;;;;3.95;0.88;;;;;;;-146.27;35.75;47346.09;5468567;26;20477;-69
2024/04/14 09:59:52;;;;;;;6.07;1.00;;;;;;;-146.27;35.83;47371.97;5448519;26;20010;-70
2024/04/14 10:02:50;;;;;;;5.63;1.63;;;;;;;-146.27;37.02;47330.16;5471472;26;20064;-70
2024/04/14 10:05:17;;;;;;;5.57;1.23;;;;;;;-146.27;38.33;47270.44;5474239;26;20319;-71
2024/04/14 10:07:43;;;;;;;6.47;1.40;;;;;;;-146.27;39.02;47296.31;5474399;26;19998;-71
2024/04/14 10:10:10;;;;;;;5.13;1.20;;;;;;;-146.27;37.17;47316.22;5471831;26;20105;-71
2024/04/14 10:12:37;;;;;;;3.47;0.88;;;;;;;-146.27;37.89;47308.25;5474964;26;19998;-71
2024/04/14 10:15:04;;;;;;;5.75;1.30;;;;;;;-146.27;38.37;47300.31;5488604;26;20363;-69
2024/04/14 10:17:29;;;;;;;8.73;1.33;;;;;;;-146.27;37.29;47336.16;5475015;26;20006;-70
2024/04/14 10:20:02;;;;;;;7.03;1.23;;;;;;;-146.27;37.36;47296.31;5459039;26;20022;-69
2024/04/14 10:22:38;;;;;;;5.60;1.20;;;;;;;-146.27;37.23;47318.22;5461060;26;19994;-70
2024/04/14 10:25:07;;;;;;;7.07;1.17;;;;;;;-146.27;37.05;47296.31;5458991;26;20061;-70
2024/04/14 10:27:35;;;;;;;8.25;1.95;;;;;;;-146.27;37.02;47288.34;5457107;26;20083;-71
2024/04/14 10:30:03;;;;;;;10.93;1.85;;;;;;;-146.27;36.99;47300.31;5467454;26;20759;-70
2024/04/14 10:32:29;;;;;;;7.65;1.30;;;;;;;-146.27;37.19;47308.25;5464733;26;20002;-70
2024/04/14 10:34:57;;;;;;;7.47;1.02;;;;;;;-146.27;36.21;47360.03;5449477;26;20026;-71
2024/04/14 10:37:24;;;;;;;8.43;1.40;;;;;;;-146.27;35.85;47348.09;5484694;26;20002;-69
2024/04/14 10:39:51;;;;;;;9.85;1.50;;;;;;;-146.27;36.01;47312.25;5483204;26;19998;-68
2024/04/14 10:42:17;;;;;;;8.05;1.10;;;;;;;-146.27;36.08;47334.16;5449797;26;19995;-70
2024/04/14 10:44:44;;;;;;;4.78;1.00;;;;;;;-146.27;36.19;47340.13;5484048;26;20076;-69
2024/04/14 10:47:13;;;;;;;11.18;2.20;;;;;;;-146.27;36.11;47328.19;5484677;26;20470;-69
2024/04/14 10:49:39;;;;;;;5.57;1.02;;;;;;;-146.27;36.37;47332.16;5472017;26;20043;-71
2024/04/14 10:52:05;;;;;;;5.75;1.40;;;;;;;-146.27;36.34;47336.16;5473401;26;20447;-68
2024/04/14 10:54:31;;;;;;;3.17;0.88;;;;;;;-146.27;36.57;47332.16;5474718;26;20009;-69
2024/04/14 10:56:56;;;;;;;7.32;1.50;;;;;;;-146.27;37.07;47368.00;5482662;26;20010;-69
2024/04/14 10:59:22;;;;;;;5.45;0.93;;;;;;;-146.27;37.68;47344.09;5469366;26;19999;-70
2024/04/14 11:01:49;;;;;;;5.10;1.08;;;;;;;-146.27;37.02;47316.22;5460962;26;20051;-69
2024/04/14 11:04:16;;;;;;;5.43;1.10;;;;;;;-146.27;36.99;47352.06;5467032;26;20006;-70
2024/04/14 11:06:44;;;;;;;7.82;1.77;;;;;;;-146.27;36.66;47306.28;5470452;26;19999;-68
2024/04/14 11:09:12;;;;;;;7.07;1.40;;;;;;;-146.27;36.54;47334.16;5481723;26;20002;-70